Weather reports worldwide

Advertisment
Vipiteno, Italy (16014): temperature & dewpoint: 17.04.2018 01:00:00 - 23.04.2018 01:00:00 (CEST)Vipiteno, Italy (16014): wind speed: 17.04.2018 01:00:00 - 23.04.2018 01:00:00 (CEST)Vipiteno, Italy (16014): wind direction: 17.04.2018 01:00:00 - 23.04.2018 01:00:00 (CEST)Vipiteno, Italy (16014): precipitation: 17.04.2018 01:00:00 - 23.04.2018 01:00:00 (CEST)
Date & Time tt [°C] td [°C] ff [km/h] ff [kn] dd rr [mm]
23.04.2018 01:00:00 8,0 3,4 2 1 WNW -
23.04.2018 00:00:00 8,2 1,9 0 0 N -
22.04.2018 23:00:00 10,6 3,5 5 3 W -
22.04.2018 22:00:00 11,6 1,7 4 2 W -
22.04.2018 21:00:00 14,0 2,5 5 3 SW -
22.04.2018 20:00:00 16,7 1,8 5 3 W 0,0
22.04.2018 19:00:00 20,0 1,3 11 6 WSW -
22.04.2018 18:00:00 21,5 1,1 9 5 WSW -
22.04.2018 17:00:00 20,8 2,0 11 6 WNW -
22.04.2018 16:00:00 21,8 3,9 4 2 NNW -
22.04.2018 15:00:00 21,5 6,9 4 2 NE -
22.04.2018 14:00:00 21,0 2,2 8 4 ESE 0,0
22.04.2018 13:00:00 19,6 6,6 0 0 N -
22.04.2018 12:00:00 17,2 6,9 2 1 ENE -
22.04.2018 11:00:00 14,3 6,6 2 1 N -
22.04.2018 10:00:00 11,9 7,2 0 0 N -
22.04.2018 09:00:00 8,4 6,8 0 0 N -
22.04.2018 08:00:00 3,2 1,1 0 0 N 0,0
22.04.2018 07:00:00 3,0 0,7 0 0 N -
22.04.2018 06:00:00 2,8 -0,4 0 0 N -
22.04.2018 05:00:00 4,1 0,7 0 0 N -
22.04.2018 04:00:00 5,2 1,4 0 0 N -
22.04.2018 03:00:00 5,5 1,2 0 0 N -
22.04.2018 02:00:00 6,2 1,3 2 1 W 0,0
22.04.2018 01:00:00 7,7 1,9 2 1 W -
22.04.2018 00:00:00 8,2 1,3 0 0 N -
21.04.2018 23:00:00 10,3 1,8 5 3 WNW -
21.04.2018 22:00:00 11,5 2,2 8 4 WSW -
21.04.2018 21:00:00 13,6 2,1 9 5 WNW -
21.04.2018 20:00:00 16,5 1,7 15 8 W 0,0
21.04.2018 19:00:00 20,1 0,4 11 6 W -
21.04.2018 18:00:00 21,4 1,6 13 7 W -
21.04.2018 17:00:00 22,2 0,6 9 5 SW -
21.04.2018 16:00:00 22,3 2,9 5 3 WSW -
21.04.2018 15:00:00 21,3 2,5 4 2 NE -
21.04.2018 14:00:00 20,8 4,3 4 2 ENE 0,0
21.04.2018 13:00:00 19,1 4,4 4 2 SE -
21.04.2018 12:00:00 17,3 6,1 4 2 N -
21.04.2018 11:00:00 14,4 4,9 2 1 N -
21.04.2018 10:00:00 11,4 6,1 2 1 NNE -
21.04.2018 09:00:00 8,0 6,4 4 2 NNE -
21.04.2018 08:00:00 2,7 0,4 0 0 N 0,0
21.04.2018 07:00:00 2,0 -1,0 0 0 N -
21.04.2018 06:00:00 2,7 -0,5 0 0 N -
21.04.2018 05:00:00 3,5 -0,2 2 1 NNW -
21.04.2018 04:00:00 3,6 -0,7 0 0 N -
21.04.2018 03:00:00 4,3 -0,2 4 2 NNW -
21.04.2018 02:00:00 5,5 0,4 0 0 N 0,0
21.04.2018 01:00:00 6,5 0,7 0 0 N -
21.04.2018 00:00:00 7,9 0,8 4 2 WNW -
20.04.2018 23:00:00 9,3 0,9 5 3 WNW -
20.04.2018 22:00:00 11,3 1,4 11 6 WSW -
20.04.2018 21:00:00 13,7 1,6 8 4 W -
20.04.2018 20:00:00 15,9 0,7 9 5 WNW 0,0
20.04.2018 19:00:00 19,5 0,4 11 6 W -
20.04.2018 18:00:00 21,4 -0,6 11 6 WSW -
20.04.2018 17:00:00 22,1 -1,3 9 5 S -
20.04.2018 16:00:00 22,0 -2,0 9 5 SSE -
20.04.2018 15:00:00 21,4 1,6 4 2 NNW -
20.04.2018 14:00:00 20,9 1,1 4 2 SSE 0,0
20.04.2018 13:00:00 18,7 4,4 2 1 ENE -
20.04.2018 12:00:00 16,6 4,5 0 0 N -
20.04.2018 11:00:00 13,6 5,2 2 1 NW -
20.04.2018 10:00:00 10,8 5,1 2 1 E -
20.04.2018 09:00:00 7,4 5,8 2 1 N -
20.04.2018 08:00:00 2,4 0,3 0 0 N 0,0
20.04.2018 07:00:00 1,7 -0,9 0 0 N -
20.04.2018 06:00:00 2,5 -0,3 0 0 N -
20.04.2018 05:00:00 2,7 -0,6 0 0 N -
20.04.2018 04:00:00 3,3 -0,4 0 0 N -
20.04.2018 03:00:00 3,3 -1,0 0 0 N -
20.04.2018 02:00:00 5,2 0,7 0 0 N 0,0
20.04.2018 01:00:00 5,5 0,0 2 1 WSW -
20.04.2018 00:00:00 7,0 0,8 2 1 W -
19.04.2018 23:00:00 9,6 1,9 9 5 WSW -
19.04.2018 22:00:00 11,2 1,9 8 4 W -
19.04.2018 21:00:00 13,1 2,2 9 5 W -
19.04.2018 20:00:00 15,8 1,0 13 7 W 0,0
19.04.2018 19:00:00 19,7 1,1 11 6 WNW -
19.04.2018 18:00:00 21,4 -0,1 9 5 WSW -
19.04.2018 17:00:00 21,9 3,0 9 5 WSW -
19.04.2018 16:00:00 22,2 1,7 4 2 SE -
19.04.2018 15:00:00 21,3 -0,1 4 2 SE -
19.04.2018 14:00:00 20,0 2,3 2 1 NNW 0,0
19.04.2018 13:00:00 18,6 3,9 2 1 E -
19.04.2018 12:00:00 16,3 5,5 2 1 NE -
19.04.2018 11:00:00 13,2 4,3 2 1 N -
19.04.2018 10:00:00 10,3 5,4 2 1 NNE -
19.04.2018 09:00:00 6,7 5,2 2 1 NE -
19.04.2018 08:00:00 2,0 -0,1 0 0 N 0,0
19.04.2018 07:00:00 2,3 -0,2 0 0 N -
19.04.2018 06:00:00 2,3 -0,7 0 0 N -
19.04.2018 05:00:00 3,2 0,0 2 1 W -
19.04.2018 04:00:00 3,1 -1,0 2 1 WNW -
19.04.2018 03:00:00 4,2 -0,1 2 1 W -
19.04.2018 02:00:00 5,4 0,9 4 2 WSW 0,0
19.04.2018 01:00:00 5,6 0,1 2 1 NNW -
19.04.2018 00:00:00 7,3 0,9 5 3 W -
18.04.2018 23:00:00 8,5 0,9 5 3 SSW -
18.04.2018 22:00:00 10,1 1,1 9 5 SW -
18.04.2018 21:00:00 11,6 0,9 13 7 WNW -
18.04.2018 20:00:00 15,0 1,1 9 5 W 0,0
18.04.2018 19:00:00 17,2 1,9 11 6 W -
18.04.2018 18:00:00 18,1 2,7 13 7 NW -
18.04.2018 17:00:00 18,2 2,8 18 10 NNW -
18.04.2018 16:00:00 18,5 1,4 16 9 WNW -
18.04.2018 15:00:00 18,8 -2,3 5 3 SSW -
18.04.2018 14:00:00 18,1 1,9 5 3 NNE 0,0
18.04.2018 13:00:00 16,8 2,7 13 7 NE -
18.04.2018 12:00:00 15,8 0,7 15 8 NE -
18.04.2018 11:00:00 14,2 3,8 5 3 SSW -
18.04.2018 10:00:00 10,8 7,3 2 1 NNE -
18.04.2018 09:00:00 7,1 5,5 0 0 N -
18.04.2018 08:00:00 3,0 1,5 2 1 SSE 0,0
18.04.2018 07:00:00 2,2 0,1 0 0 N -
18.04.2018 06:00:00 2,1 -0,7 2 1 NNW -
18.04.2018 05:00:00 3,0 -0,3 2 1 WSW -
18.04.2018 04:00:00 4,3 0,4 2 1 NNW -
18.04.2018 03:00:00 5,6 1,1 2 1 W -
18.04.2018 02:00:00 7,4 2,2 13 7 WNW 0,0
18.04.2018 01:00:00 7,6 2,0 11 6 W -
18.04.2018 00:00:00 7,6 2,2 15 8 W -
17.04.2018 23:00:00 8,4 2,1 15 8 W -
17.04.2018 22:00:00 9,1 2,3 15 8 WSW -
17.04.2018 21:00:00 10,9 2,1 9 5 W -
17.04.2018 20:00:00 13,5 2,0 4 2 SE 0,0
17.04.2018 19:00:00 14,5 2,9 15 8 W -
17.04.2018 18:00:00 14,8 2,9 16 9 NW -
17.04.2018 17:00:00 14,7 3,4 15 8 N -
17.04.2018 16:00:00 15,6 3,0 18 10 NW -
17.04.2018 15:00:00 15,8 3,8 22 12 WNW -
17.04.2018 14:00:00 15,0 4,3 21 11 WNW 0,0
17.04.2018 13:00:00 14,1 5,4 18 10 NW -
17.04.2018 12:00:00 13,7 5,3 28 15 NNW -
17.04.2018 11:00:00 13,0 4,6 21 11 NW -
17.04.2018 10:00:00 12,1 4,7 22 12 NNW -
17.04.2018 09:00:00 10,6 5,5 11 6 W -
17.04.2018 08:00:00 7,9 4,6 11 6 W 0,0
17.04.2018 07:00:00 7,1 4,0 4 2 WNW -
17.04.2018 06:00:00 7,5 4,2 11 6 W -
17.04.2018 05:00:00 7,1 3,8 5 3 NNW -
17.04.2018 04:00:00 7,6 4,0 13 7 W -
17.04.2018 03:00:00 8,3 4,5 11 6 W -
17.04.2018 02:00:00 8,2 4,5 11 6 SW 0,0
17.04.2018 01:00:00 8,1 4,4 13 7 W -

tt = temperature
td = dewpoint
ff = wind speed
dd = wind direction
rr = precipitation

Next stations